Time;durP1;ratioP1;P1;durP2;ratioP2;P2;SDS_P1;SDS_P2;PMS_P1;PMS_P2;Temp;Humidity;BMP_temperature;BMP_pressure;BME280_temperature;BME280_humidity;BME280_pressure;Samples;Min_cycle;Max_cycle;Signal;HPM_P1;HPM_P2
2021/10/19 00:00:27;;;;;;;;;;;;;;;18.29;61.56;100531.56;2087440;28;19912;-68
2021/10/19 00:01:28;;;;;;;;;;;;;;;18.28;61.46;100527.97;2087211;28;19943;-68
2021/10/19 00:02:29;;;;;;;;;;;;;;;18.29;61.56;100529.69;2081233;28;19948;-68
2021/10/19 00:03:30;;;;;;;;;;;;;;;18.29;61.57;100535.13;2088318;28;19956;-68
2021/10/19 00:04:30;;;;;;;;;;;;;;;18.29;61.45;100529.69;2097722;28;19920;-67
2021/10/19 00:05:30;;;;;;;;;;;;;;;18.28;61.48;100533.41;2088347;28;19925;-68
2021/10/19 00:06:30;;;;;;;;;;;;;;;18.28;61.41;100527.09;2089116;28;19934;-69
2021/10/19 00:07:31;;;;;;;;;;;;;;;18.28;61.53;100533.41;2097616;28;20575;-68
2021/10/19 00:08:31;;;;;;;;;;;;;;;18.28;61.37;100538.88;2101442;28;19927;-68
2021/10/19 00:09:31;;;;;;;;;;;;;;;18.29;61.38;100528.81;2095941;28;20036;-68
2021/10/19 00:10:32;;;;;;;;;;;;;;;18.28;61.36;100527.09;2098006;28;19916;-67
2021/10/19 00:11:32;;;;;;;;;;;;;;;18.28;61.48;100524.38;2098355;28;19962;-68
2021/10/19 00:12:33;;;;;;;;;;;;;;;18.28;61.36;100521.66;2104248;28;19912;-68
2021/10/19 00:13:34;;;;;;;;;;;;;;;18.28;61.43;100524.38;2095595;28;19916;-68
2021/10/19 00:14:34;;;;;;;;;;;;;;;18.28;61.54;100521.66;2096389;28;20406;-68
2021/10/19 00:15:34;;;;;;;;;;;;;;;18.28;61.42;100525.22;2091157;28;20302;-68
2021/10/19 00:16:35;;;;;;;;;;;;;;;18.28;61.49;100519.78;2094361;28;19936;-68
2021/10/19 00:17:41;;;;;;;;;;;;;;;18.28;61.38;100518.91;2095074;28;19981;-68
2021/10/19 00:18:41;;;;;;;;;;;;;;;18.28;61.51;100527.09;2093127;28;19913;-68
2021/10/19 00:19:42;;;;;;;;;;;;;;;18.27;61.55;100520.75;2093780;28;19920;-68
2021/10/19 00:20:42;;;;;;;;;;;;;;;18.27;61.55;100528.94;2095422;28;19920;-67
2021/10/19 00:21:43;;;;;;;;;;;;;;;18.27;61.51;100520.75;2096864;28;19928;-68
2021/10/19 00:22:43;;;;;;;;;;;;;;;18.27;61.48;100525.34;2097429;28;19924;-67
2021/10/19 00:23:43;;;;;;;;;;;;;;;18.28;61.50;100524.38;2091374;28;20065;-69
2021/10/19 00:24:44;;;;;;;;;;;;;;;18.26;61.65;100529.97;2092414;28;19916;-69
2021/10/19 00:25:44;;;;;;;;;;;;;;;18.27;61.60;100525.34;2098489;28;19947;-68
2021/10/19 00:26:44;;;;;;;;;;;;;;;18.27;61.54;100526.22;2088574;28;19913;-68
2021/10/19 00:27:45;;;;;;;;;;;;;;;18.28;61.58;100529.84;2088879;28;20016;-68
2021/10/19 00:28:45;;;;;;;;;;;;;;;18.27;61.62;100526.22;2092618;28;19923;-69
2021/10/19 00:29:46;;;;;;;;;;;;;;;18.27;61.61;100525.34;2096879;28;19913;-68
2021/10/19 00:30:46;;;;;;;;;;;;;;;18.27;61.45;100523.47;2097420;28;20385;-69
2021/10/19 00:31:47;;;;;;;;;;;;;;;18.28;61.36;100525.22;2097484;28;20352;-66
2021/10/19 00:32:47;;;;;;;;;;;;;;;18.27;61.54;100523.47;2095210;28;20315;-68
2021/10/19 00:33:47;;;;;;;;;;;;;;;18.27;61.31;100520.75;2094519;28;19913;-67
2021/10/19 00:34:47;;;;;;;;;;;;;;;18.27;61.41;100517.16;2096287;28;19920;-67
2021/10/19 00:35:48;;;;;;;;;;;;;;;18.26;61.44;100519.03;2096243;28;19912;-67
2021/10/19 00:36:48;;;;;;;;;;;;;;;18.27;61.38;100517.16;2096896;28;19920;-67
2021/10/19 00:37:48;;;;;;;;;;;;;;;18.26;61.57;100521.78;2096412;28;19925;-68
2021/10/19 00:38:49;;;;;;;;;;;;;;;18.27;61.53;100517.16;2097845;28;19920;-67
2021/10/19 00:39:49;;;;;;;;;;;;;;;18.27;61.39;100520.75;2097154;28;20407;-67
2021/10/19 00:40:49;;;;;;;;;;;;;;;18.26;61.40;100513.59;2097659;28;20387;-67
2021/10/19 00:41:50;;;;;;;;;;;;;;;18.26;61.52;100519.03;2096843;28;21061;-67
2021/10/19 00:42:50;;;;;;;;;;;;;;;18.26;61.51;100519.03;2096415;28;20019;-68
2021/10/19 00:43:51;;;;;;;;;;;;;;;18.26;61.55;100519.03;2094556;28;20571;-68
2021/10/19 00:44:52;;;;;;;;;;;;;;;18.26;61.43;100516.31;2092655;28;20529;-67
2021/10/19 00:45:52;;;;;;;;;;;;;;;18.25;61.49;100506.41;2090348;28;20357;-67
2021/10/19 00:46:54;;;;;;;;;;;;;;;18.26;61.56;100507.28;2093704;28;19913;-67
2021/10/19 00:47:54;;;;;;;;;;;;;;;18.26;61.48;100510.84;2081313;28;19917;-68
2021/10/19 00:48:55;;;;;;;;;;;;;;;18.25;61.44;100511.88;2094449;28;19919;-67
2021/10/19 00:49:55;;;;;;;;;;;;;;;18.25;61.57;100516.44;2097945;28;20057;-67
2021/10/19 00:50:55;;;;;;;;;;;;;;;18.26;61.37;100515.44;2097889;28;19919;-67
2021/10/19 00:51:57;;;;;;;;;;;;;;;18.25;61.51;100511.88;2096363;28;19913;-68
2021/10/19 00:52:58;;;;;;;;;;;;;;;18.25;61.57;100510.97;2097239;28;20291;-68
2021/10/19 00:53:59;;;;;;;;;;;;;;;18.26;61.52;100519.03;2096453;28;20803;-67
2021/10/19 00:55:03;;;;;;;;;;;;;;;18.26;61.31;100518.19;2100954;28;20591;-68
2021/10/19 00:56:06;;;;;;;;;;;;;;;18.25;61.36;100520.06;2096498;28;19916;-67
2021/10/19 00:57:07;;;;;;;;;;;;;;;18.25;61.25;100517.31;2087867;28;19924;-67
2021/10/19 00:58:07;;;;;;;;;;;;;;;18.26;61.48;100523.63;2088252;28;19915;-68
2021/10/19 00:59:08;;;;;;;;;;;;;;;18.26;61.57;100524.50;2096858;28;19935;-67
2021/10/19 01:00:09;;;;;;;;;;;;;;;18.26;61.53;100527.22;2084915;28;19913;-68
2021/10/19 01:01:10;;;;;;;;;;;;;;;18.25;61.60;100522.78;2087813;28;19927;-68
2021/10/19 01:02:11;;;;;;;;;;;;;;;18.25;61.44;100528.25;2091214;28;19954;-67
2021/10/19 01:03:12;;;;;;;;;;;;;;;18.25;61.41;100533.69;2086096;28;19955;-67
2021/10/19 01:04:12;;;;;;;;;;;;;;;18.26;61.74;100529.09;2088455;28;19920;-67
2021/10/19 01:05:12;;;;;;;;;;;;;;;18.26;61.43;100527.22;2096646;28;20559;-67
2021/10/19 01:06:13;;;;;;;;;;;;;;;18.25;61.51;100528.25;2095311;28;20283;-67
2021/10/19 01:07:16;;;;;;;;;;;;;;;18.24;61.49;100526.50;2090961;28;20498;-68
2021/10/19 01:08:17;;;;;;;;;;;;;;;18.25;61.53;100528.25;2093071;28;20401;-68
2021/10/19 01:09:17;;;;;;;;;;;;;;;18.25;61.58;100528.25;2096809;28;20290;-67
2021/10/19 01:10:17;;;;;;;;;;;;;;;18.25;61.58;100521.88;2093797;28;19917;-67
2021/10/19 01:11:18;;;;;;;;;;;;;;;18.26;61.49;100531.81;2091725;28;19927;-67
2021/10/19 01:12:18;;;;;;;;;;;;;;;18.25;61.51;100527.34;2099342;28;20023;-67
2021/10/19 01:13:19;;;;;;;;;;;;;;;18.26;61.40;100529.97;2095360;28;19955;-69
2021/10/19 01:14:19;;;;;;;;;;;;;;;18.24;61.43;100529.22;2096945;28;20326;-67
2021/10/19 01:15:19;;;;;;;;;;;;;;;18.25;61.44;100533.69;2096573;28;19965;-67
2021/10/19 01:16:20;;;;;;;;;;;;;;;18.25;61.45;100527.34;2092383;28;19912;-68
2021/10/19 01:17:20;;;;;;;;;;;;;;;18.26;61.48;100540.00;2089077;28;19913;-67
2021/10/19 01:18:20;;;;;;;;;;;;;;;18.25;61.61;100539.16;2087346;28;19920;-68
2021/10/19 01:19:21;;;;;;;;;;;;;;;18.25;61.43;100539.16;2097625;28;19912;-67
2021/10/19 01:20:22;;;;;;;;;;;;;;;18.25;61.45;100539.16;2094863;28;19919;-67
2021/10/19 01:21:22;;;;;;;;;;;;;;;18.26;61.52;100531.81;2097149;28;19923;-68
2021/10/19 01:22:22;;;;;;;;;;;;;;;18.24;61.49;100531.94;2096917;28;19962;-68
2021/10/19 01:23:23;;;;;;;;;;;;;;;18.25;61.73;100533.69;2096904;28;19912;-67
2021/10/19 01:24:23;;;;;;;;;;;;;;;18.25;61.61;100538.25;2089309;28;19935;-68
2021/10/19 01:25:25;;;;;;;;;;;;;;;18.24;61.51;100531.94;2094703;28;19916;-67
2021/10/19 01:26:25;;;;;;;;;;;;;;;18.24;61.54;100531.94;2088731;28;20406;-67
2021/10/19 01:27:25;;;;;;;;;;;;;;;18.24;61.50;100534.69;2090950;28;20406;-67
2021/10/19 01:28:26;;;;;;;;;;;;;;;18.24;61.63;100536.53;2086713;28;19913;-68
2021/10/19 01:29:26;;;;;;;;;;;;;;;18.24;61.49;100537.41;2093884;28;19966;-68
2021/10/19 01:30:27;;;;;;;;;;;;;;;18.24;61.55;100539.28;2094007;28;19913;-67
2021/10/19 01:31:27;;;;;;;;;;;;;;;18.23;61.60;100532.97;2095463;28;20343;-69
2021/10/19 01:32:27;;;;;;;;;;;;;;;18.24;61.36;100525.63;2095936;28;19917;-69
2021/10/19 01:33:28;;;;;;;;;;;;;;;18.23;61.39;100530.22;2097623;28;20385;-68
2021/10/19 01:34:33;;;;;;;;;;;;;;;18.24;61.62;100531.94;2085511;28;19913;-69
2021/10/19 01:35:36;;;;;;;;;;;;;;;18.23;61.59;100524.78;2083346;28;19921;-66
2021/10/19 01:36:37;;;;;;;;;;;;;;;18.24;61.63;100525.63;2096466;28;19916;-68
2021/10/19 01:37:37;;;;;;;;;;;;;;;18.23;61.65;100530.22;2095617;28;19938;-67
2021/10/19 01:38:38;;;;;;;;;;;;;;;18.23;61.62;100532.97;2096819;28;20378;-67
2021/10/19 01:39:38;;;;;;;;;;;;;;;18.24;61.51;100531.09;2095161;28;19920;-68
2021/10/19 01:40:39;;;;;;;;;;;;;;;18.23;61.44;100530.22;2098733;28;19916;-67
2021/10/19 01:41:41;;;;;;;;;;;;;;;18.24;61.41;100526.50;2096536;28;20736;-68
2021/10/19 01:42:42;;;;;;;;;;;;;;;18.23;61.40;100522.03;2095838;28;19913;-68
2021/10/19 01:43:42;;;;;;;;;;;;;;;18.23;61.44;100521.16;2096914;28;19923;-68
2021/10/19 01:44:42;;;;;;;;;;;;;;;18.23;61.55;100524.78;2097463;28;19913;-68
2021/10/19 01:45:43;;;;;;;;;;;;;;;18.23;61.69;100522.03;2095807;28;19921;-67
2021/10/19 01:46:43;;;;;;;;;;;;;;;18.23;61.45;100516.59;2094489;28;19923;-67
2021/10/19 01:47:44;;;;;;;;;;;;;;;18.22;61.40;100520.28;2091870;28;21175;-68
2021/10/19 01:48:44;;;;;;;;;;;;;;;18.23;61.53;100523.88;2092617;28;19915;-67
2021/10/19 01:49:45;;;;;;;;;;;;;;;18.21;61.45;100513.97;2095377;28;19936;-68
2021/10/19 01:50:46;;;;;;;;;;;;;;;18.23;61.57;100515.69;2095888;28;19978;-68
2021/10/19 01:51:46;;;;;;;;;;;;;;;18.23;61.59;100515.69;2094850;28;19969;-68
2021/10/19 01:52:46;;;;;;;;;;;;;;;18.23;61.53;100512.97;2097126;28;19912;-68
2021/10/19 01:53:47;;;;;;;;;;;;;;;18.22;61.65;100514.84;2096916;28;19916;-68
2021/10/19 01:54:47;;;;;;;;;;;;;;;18.22;61.65;100517.56;2096507;28;19919;-67
2021/10/19 01:55:47;;;;;;;;;;;;;;;18.22;61.69;100520.28;2096872;28;19916;-68
2021/10/19 01:56:48;;;;;;;;;;;;;;;18.22;61.70;100525.75;2095563;28;19908;-67
2021/10/19 01:57:48;;;;;;;;;;;;;;;18.22;61.55;100517.56;2095554;28;20245;-68
2021/10/19 01:58:48;;;;;;;;;;;;;;;18.21;61.64;100522.16;2093031;28;19949;-68
2021/10/19 01:59:49;;;;;;;;;;;;;;;18.22;61.48;100528.47;2095379;28;19916;-68
2021/10/19 02:00:49;;;;;;;;;;;;;;;18.22;61.65;100520.28;2098942;28;19962;-68
2021/10/19 02:01:50;;;;;;;;;;;;;;;18.22;61.49;100523.03;2099893;28;19916;-68
2021/10/19 02:02:50;;;;;;;;;;;;;;;18.22;61.50;100520.28;2097254;28;19916;-67
2021/10/19 02:03:51;;;;;;;;;;;;;;;18.21;61.67;100516.72;2092869;28;19916;-68
2021/10/19 02:04:51;;;;;;;;;;;;;;;18.21;61.53;100515.84;2102424;28;19912;-67
2021/10/19 02:05:51;;;;;;;;;;;;;;;18.22;61.70;100512.09;2096215;28;19962;-68
2021/10/19 02:06:51;;;;;;;;;;;;;;;18.21;61.54;100510.41;2096906;28;19970;-68
2021/10/19 02:07:52;;;;;;;;;;;;;;;18.21;61.57;100510.41;2096668;28;19966;-68
2021/10/19 02:08:52;;;;;;;;;;;;;;;18.21;61.54;100510.41;2094556;28;19924;-68
2021/10/19 02:09:52;;;;;;;;;;;;;;;18.22;61.74;100509.38;2102215;28;19957;-68
2021/10/19 02:10:53;;;;;;;;;;;;;;;18.21;61.52;100500.34;2096030;28;19913;-68
2021/10/19 02:11:54;;;;;;;;;;;;;;;18.21;61.70;100505.78;2100178;28;20413;-68
2021/10/19 02:12:54;;;;;;;;;;;;;;;18.22;61.61;100501.19;2087865;28;20294;-67
2021/10/19 02:13:55;;;;;;;;;;;;;;;18.20;61.53;100495.00;2087431;28;19940;-68
2021/10/19 02:14:55;;;;;;;;;;;;;;;18.21;61.69;100502.22;2096542;28;19995;-67
2021/10/19 02:15:55;;;;;;;;;;;;;;;18.20;61.55;100498.63;2095845;28;19924;-68
2021/10/19 02:16:56;;;;;;;;;;;;;;;18.21;61.66;100496.75;2091323;28;20295;-67
2021/10/19 02:17:56;;;;;;;;;;;;;;;18.20;61.66;100498.63;2094169;28;19912;-68
2021/10/19 02:18:57;;;;;;;;;;;;;;;18.20;61.58;100489.53;2096849;28;19962;-67
2021/10/19 02:20:00;;;;;;;;;;;;;;;18.21;61.47;100488.56;2093103;28;20314;-68
2021/10/19 02:21:00;;;;;;;;;;;;;;;18.20;61.54;100486.81;2091890;28;20057;-68
2021/10/19 02:22:01;;;;;;;;;;;;;;;18.20;61.69;100476.78;2087888;28;19913;-68
2021/10/19 02:23:01;;;;;;;;;;;;;;;18.21;61.54;100477.66;2085133;28;19963;-68
2021/10/19 02:24:01;;;;;;;;;;;;;;;18.21;61.59;100477.66;2096984;28;19920;-68
2021/10/19 02:25:02;;;;;;;;;;;;;;;18.20;61.48;100468.59;2094544;28;19912;-67
2021/10/19 02:26:02;;;;;;;;;;;;;;;18.19;61.59;100474.19;2096515;28;19912;-67
2021/10/19 02:27:03;;;;;;;;;;;;;;;18.20;61.56;100459.53;2101979;28;20281;-67
2021/10/19 02:28:03;;;;;;;;;;;;;;;18.19;61.72;100466.84;2095904;28;19920;-67
2021/10/19 02:29:03;;;;;;;;;;;;;;;18.20;61.59;100454.06;2095028;28;20396;-67
2021/10/19 02:30:05;;;;;;;;;;;;;;;18.20;61.48;100459.53;2087264;28;19913;-67
2021/10/19 02:31:06;;;;;;;;;;;;;;;18.21;61.56;100455.81;2085667;28;19970;-68
2021/10/19 02:32:06;;;;;;;;;;;;;;;18.20;61.80;100454.06;2096617;28;19966;-68
2021/10/19 02:33:06;;;;;;;;;;;;;;;18.19;61.65;100447.75;2096052;28;19920;-68
2021/10/19 02:34:07;;;;;;;;;;;;;;;18.20;61.65;100454.06;2093867;28;19971;-68
2021/10/19 02:35:08;;;;;;;;;;;;;;;18.20;61.60;100454.06;2094741;28;19935;-68
2021/10/19 02:36:08;;;;;;;;;;;;;;;18.19;61.65;100453.22;2095954;28;19924;-67
2021/10/19 02:37:09;;;;;;;;;;;;;;;18.20;61.79;100459.53;2096297;28;19966;-68
2021/10/19 02:38:09;;;;;;;;;;;;;;;18.19;61.64;100461.41;2096486;28;19920;-68
2021/10/19 02:39:09;;;;;;;;;;;;;;;18.20;61.58;100462.25;2086847;28;19917;-68
2021/10/19 02:40:11;;;;;;;;;;;;;;;18.20;61.74;100470.44;2087582;28;19964;-68
2021/10/19 02:41:11;;;;;;;;;;;;;;;18.20;61.80;100465.00;2094011;28;19920;-68
2021/10/19 02:42:12;;;;;;;;;;;;;;;18.20;61.62;100471.34;2092140;28;19920;-67
2021/10/19 02:43:12;;;;;;;;;;;;;;;18.21;61.78;100480.38;2100432;28;19912;-68
2021/10/19 02:44:12;;;;;;;;;;;;;;;18.20;61.53;100471.34;2088760;28;19923;-67
2021/10/19 02:45:13;;;;;;;;;;;;;;;18.20;61.77;100475.91;2087282;28;19913;-68
2021/10/19 02:46:13;;;;;;;;;;;;;;;18.20;61.73;100470.44;2097150;28;19917;-68
2021/10/19 02:47:14;;;;;;;;;;;;;;;18.20;61.64;100471.34;2090426;28;20620;-68
2021/10/19 02:48:14;;;;;;;;;;;;;;;18.20;61.65;100473.19;2087833;28;19917;-68
2021/10/19 02:49:14;;;;;;;;;;;;;;;18.19;61.75;100474.19;2096130;28;19909;-68
2021/10/19 02:50:15;;;;;;;;;;;;;;;18.19;61.58;100472.31;2087038;28;19917;-68
2021/10/19 02:51:15;;;;;;;;;;;;;;;18.19;61.67;100479.66;2086849;28;20002;-69
2021/10/19 02:52:15;;;;;;;;;;;;;;;18.19;61.73;100475.03;2096178;28;19948;-69
2021/10/19 02:53:15;;;;;;;;;;;;;;;18.19;61.73;100474.19;2094114;28;19920;-69
2021/10/19 02:54:16;;;;;;;;;;;;;;;18.19;61.71;100474.19;2095595;28;20130;-67
2021/10/19 02:55:17;;;;;;;;;;;;;;;18.20;61.58;100470.44;2094603;28;19917;-67
2021/10/19 02:56:17;;;;;;;;;;;;;;;18.19;61.56;100472.31;2096449;28;19936;-67
2021/10/19 02:57:18;;;;;;;;;;;;;;;18.19;61.68;100468.72;2097477;28;19920;-67
2021/10/19 02:58:18;;;;;;;;;;;;;;;18.19;61.70;100475.03;2094484;28;19921;-67
2021/10/19 02:59:19;;;;;;;;;;;;;;;18.20;61.73;100470.44;2091686;28;19921;-68
2021/10/19 03:00:19;;;;;;;;;;;;;;;18.20;61.63;100470.44;2092178;28;19955;-67
2021/10/19 03:01:19;;;;;;;;;;;;;;;18.19;61.73;100474.19;2092307;28;19925;-68
2021/10/19 03:02:20;;;;;;;;;;;;;;;18.18;61.66;100462.41;2096698;28;19915;-68
2021/10/19 03:03:20;;;;;;;;;;;;;;;18.18;61.82;100467.00;2095773;28;19917;-67
2021/10/19 03:04:20;;;;;;;;;;;;;;;18.19;61.77;100463.28;2095560;28;19916;-68
2021/10/19 03:05:20;;;;;;;;;;;;;;;18.19;61.58;100468.72;2094467;28;19955;-68
2021/10/19 03:06:21;;;;;;;;;;;;;;;18.19;61.71;100474.19;2094955;28;19923;-68
2021/10/19 03:07:21;;;;;;;;;;;;;;;18.19;61.76;100476.91;2092811;28;20394;-67
2021/10/19 03:08:22;;;;;;;;;;;;;;;18.19;61.74;100468.72;2095949;28;20295;-67
2021/10/19 03:09:22;;;;;;;;;;;;;;;18.19;61.83;100474.19;2090306;28;19916;-68
2021/10/19 03:10:23;;;;;;;;;;;;;;;18.19;61.88;100474.19;2096866;28;19967;-67
2021/10/19 03:11:24;;;;;;;;;;;;;;;18.19;61.91;100474.19;2095274;28;19974;-68
2021/10/19 03:12:24;;;;;;;;;;;;;;;18.19;61.89;100468.72;2096752;28;20489;-68
2021/10/19 03:13:25;;;;;;;;;;;;;;;18.19;61.65;100471.47;2092152;28;20018;-67
2021/10/19 03:14:25;;;;;;;;;;;;;;;18.18;61.88;100465.16;2087184;28;20302;-68
2021/10/19 03:15:25;;;;;;;;;;;;;;;18.19;61.66;100468.72;2096624;28;19917;-67
2021/10/19 03:16:26;;;;;;;;;;;;;;;18.18;61.64;100467.88;2095935;28;19920;-67
2021/10/19 03:17:26;;;;;;;;;;;;;;;18.17;61.70;100463.41;2095041;28;19912;-68
2021/10/19 03:18:27;;;;;;;;;;;;;;;18.19;61.71;100468.72;2087239;28;19919;-67
2021/10/19 03:19:27;;;;;;;;;;;;;;;18.18;61.90;100469.75;2087033;28;19916;-68
2021/10/19 03:20:30;;;;;;;;;;;;;;;18.18;61.95;100472.47;2096577;28;19978;-68
2021/10/19 03:21:30;;;;;;;;;;;;;;;18.18;61.81;100465.16;2095580;28;20007;-68
2021/10/19 03:22:30;;;;;;;;;;;;;;;18.19;61.94;100466.84;2091506;28;20604;-68
2021/10/19 03:23:31;;;;;;;;;;;;;;;18.18;61.83;100461.56;2094974;28;20281;-68
2021/10/19 03:24:31;;;;;;;;;;;;;;;18.18;61.78;100464.28;2090557;28;19912;-68
2021/10/19 03:25:31;;;;;;;;;;;;;;;18.18;61.72;100458.81;2094458;28;19996;-68
2021/10/19 03:26:32;;;;;;;;;;;;;;;18.17;61.96;100460.66;2095066;28;19954;-68
2021/10/19 03:27:32;;;;;;;;;;;;;;;18.17;61.93;100459.81;2095671;28;20764;-68
2021/10/19 03:28:32;;;;;;;;;;;;;;;18.17;61.76;100452.47;2095443;28;19919;-68
2021/10/19 03:29:33;;;;;;;;;;;;;;;18.17;61.87;100454.34;2096257;28;19913;-68
2021/10/19 03:30:33;;;;;;;;;;;;;;;18.17;61.97;100457.06;2084554;28;19952;-68
2021/10/19 03:31:35;;;;;;;;;;;;;;;18.17;61.86;100463.41;2088688;28;19982;-68
2021/10/19 03:32:35;;;;;;;;;;;;;;;18.18;61.74;100458.81;2097466;28;19981;-68
2021/10/19 03:33:35;;;;;;;;;;;;;;;18.16;61.96;100458.94;2097707;28;19965;-68
2021/10/19 03:34:37;;;;;;;;;;;;;;;18.17;61.96;100459.81;2097323;28;19916;-68
2021/10/19 03:35:37;;;;;;;;;;;;;;;18.17;62.01;100459.81;2096581;28;19920;-68
2021/10/19 03:36:37;;;;;;;;;;;;;;;18.16;61.96;100456.22;2097144;28;19920;-68
2021/10/19 03:37:38;;;;;;;;;;;;;;;18.17;61.86;100457.94;2097249;28;19919;-68
2021/10/19 03:38:39;;;;;;;;;;;;;;;18.17;61.94;100459.81;2096844;28;19912;-68
2021/10/19 03:39:39;;;;;;;;;;;;;;;18.16;61.98;100450.75;2097105;28;19917;-68
2021/10/19 03:40:40;;;;;;;;;;;;;;;18.16;61.96;100453.50;2097453;28;19962;-68
2021/10/19 03:41:40;;;;;;;;;;;;;;;18.16;61.79;100455.38;2097788;28;20424;-68
2021/10/19 03:42:47;;;;;;;;;;;;;;;18.16;61.81;100448.03;2095256;28;19920;-68
2021/10/19 03:43:48;;;;;;;;;;;;;;;18.16;61.79;100458.94;2095751;28;19913;-68
2021/10/19 03:44:48;;;;;;;;;;;;;;;18.16;61.80;100452.63;2097199;28;19912;-69
2021/10/19 03:45:48;;;;;;;;;;;;;;;18.17;61.94;100459.81;2097000;28;19920;-71
2021/10/19 03:46:49;;;;;;;;;;;;;;;18.17;61.91;100454.34;2096027;28;19922;-69
2021/10/19 03:47:49;;;;;;;;;;;;;;;18.17;61.97;100448.91;2094082;28;20696;-69
2021/10/19 03:48:49;;;;;;;;;;;;;;;18.16;61.83;100456.22;2097341;28;19912;-69
2021/10/19 03:49:49;;;;;;;;;;;;;;;18.17;61.84;100454.34;2082073;28;19956;-69
2021/10/19 03:50:50;;;;;;;;;;;;;;;18.17;61.75;100451.63;2081707;28;20370;-68
2021/10/19 03:51:50;;;;;;;;;;;;;;;18.16;61.96;100458.09;2096101;28;20488;-69
2021/10/19 03:52:50;;;;;;;;;;;;;;;18.17;61.87;100454.34;2096887;28;19922;-69
2021/10/19 03:53:51;;;;;;;;;;;;;;;18.17;61.70;100454.34;2093447;28;20298;-69
2021/10/19 03:54:51;;;;;;;;;;;;;;;18.17;61.85;100454.34;2094156;28;19999;-69
2021/10/19 03:55:51;;;;;;;;;;;;;;;18.16;61.62;100452.63;2097075;28;20007;-68
2021/10/19 03:56:52;;;;;;;;;;;;;;;18.16;61.97;100463.56;2096242;28;20346;-69
2021/10/19 03:57:52;;;;;;;;;;;;;;;18.16;61.88;100456.22;2097038;28;19912;-69
2021/10/19 03:58:53;;;;;;;;;;;;;;;18.16;61.94;100452.63;2096773;28;19912;-68
2021/10/19 03:59:53;;;;;;;;;;;;;;;18.16;62.02;100460.81;2099370;28;19912;-69
2021/10/19 04:00:53;;;;;;;;;;;;;;;18.17;62.02;100454.34;2101175;28;19969;-69
2021/10/19 04:01:54;;;;;;;;;;;;;;;18.16;61.87;100452.63;2101353;28;20386;-69
2021/10/19 04:02:54;;;;;;;;;;;;;;;18.16;62.06;100452.63;2095645;28;19969;-69
2021/10/19 04:03:54;;;;;;;;;;;;;;;18.16;61.84;100452.63;2096962;28;19916;-69
2021/10/19 04:04:54;;;;;;;;;;;;;;;18.15;61.97;100457.25;2096547;28;19912;-68
2021/10/19 04:05:55;;;;;;;;;;;;;;;18.16;61.93;100447.19;2095587;28;19970;-69
2021/10/19 04:06:55;;;;;;;;;;;;;;;18.16;61.80;100448.03;2093206;28;19978;-69
2021/10/19 04:07:56;;;;;;;;;;;;;;;18.16;61.86;100455.38;2096368;28;19912;-69
2021/10/19 04:08:56;;;;;;;;;;;;;;;18.15;61.85;100457.25;2095978;28;19913;-69
2021/10/19 04:09:56;;;;;;;;;;;;;;;18.16;61.76;100464.41;2086519;28;19968;-69
2021/10/19 04:10:58;;;;;;;;;;;;;;;18.16;61.80;100458.09;2086152;28;21203;-69
2021/10/19 04:11:58;;;;;;;;;;;;;;;18.16;61.80;100463.56;2095391;28;19920;-69
2021/10/19 04:12:58;;;;;;;;;;;;;;;18.15;61.87;100456.34;2096099;28;19947;-69
2021/10/19 04:13:59;;;;;;;;;;;;;;;18.15;61.73;100462.69;2098078;28;19935;-69
2021/10/19 04:14:59;;;;;;;;;;;;;;;18.16;61.90;100458.09;2095876;28;20440;-68
2021/10/19 04:15:59;;;;;;;;;;;;;;;18.16;61.69;100458.09;2095891;28;19958;-68
2021/10/19 04:17:00;;;;;;;;;;;;;;;18.16;61.84;100461.69;2095873;28;19943;-69
2021/10/19 04:18:01;;;;;;;;;;;;;;;18.15;61.70;100462.69;2095942;28;19916;-69
2021/10/19 04:19:01;;;;;;;;;;;;;;;18.15;61.76;100459.06;2095510;28;20337;-69
2021/10/19 04:20:02;;;;;;;;;;;;;;;18.16;61.80;100466.28;2097026;28;19912;-69
2021/10/19 04:21:02;;;;;;;;;;;;;;;18.15;61.78;100456.34;2095932;28;19913;-69
2021/10/19 04:22:03;;;;;;;;;;;;;;;18.15;61.80;100462.69;2096257;28;19919;-69
2021/10/19 04:23:03;;;;;;;;;;;;;;;18.16;61.80;100471.75;2089737;28;20529;-69
2021/10/19 04:24:03;;;;;;;;;;;;;;;18.15;61.79;100461.81;2094770;28;19970;-68
2021/10/19 04:25:04;;;;;;;;;;;;;;;18.16;61.73;100463.56;2087828;28;20278;-69
2021/10/19 04:26:04;;;;;;;;;;;;;;;18.15;61.90;100467.25;2082265;28;19968;-69
2021/10/19 04:27:05;;;;;;;;;;;;;;;18.15;61.72;100465.41;2096077;28;20576;-69
2021/10/19 04:28:05;;;;;;;;;;;;;;;18.15;61.73;100464.53;2092586;28;19940;-69
2021/10/19 04:29:05;;;;;;;;;;;;;;;18.15;61.87;100468.16;2094224;28;20507;-69
2021/10/19 04:30:06;;;;;;;;;;;;;;;18.16;61.71;100471.75;2088507;28;19916;-69
2021/10/19 04:31:06;;;;;;;;;;;;;;;18.15;61.75;100472.72;2097619;28;19910;-69
2021/10/19 04:32:07;;;;;;;;;;;;;;;18.15;61.95;100465.41;2104752;28;19999;-68
2021/10/19 04:33:07;;;;;;;;;;;;;;;18.14;61.86;100465.53;2090861;28;19964;-69
2021/10/19 04:34:07;;;;;;;;;;;;;;;18.14;61.79;100468.28;2092411;28;19913;-68
2021/10/19 04:35:08;;;;;;;;;;;;;;;18.14;61.88;100466.41;2095849;28;19916;-69
2021/10/19 04:36:08;;;;;;;;;;;;;;;18.14;61.90;100460.94;2095309;28;19987;-69
2021/10/19 04:37:09;;;;;;;;;;;;;;;18.14;61.94;100463.69;2094671;28;20481;-68
2021/10/19 04:38:09;;;;;;;;;;;;;;;18.14;61.87;100465.53;2096477;28;19916;-69
2021/10/19 04:39:09;;;;;;;;;;;;;;;18.13;61.67;100461.09;2096109;28;20009;-68
2021/10/19 04:40:10;;;;;;;;;;;;;;;18.15;62.04;100475.44;2093662;28;19917;-69
2021/10/19 04:41:10;;;;;;;;;;;;;;;18.14;61.82;100471.00;2093299;28;19963;-69
2021/10/19 04:42:11;;;;;;;;;;;;;;;18.15;62.01;100467.25;2094381;28;19959;-68
2021/10/19 04:43:11;;;;;;;;;;;;;;;18.14;61.93;100469.13;2087292;28;19913;-69
2021/10/19 04:44:12;;;;;;;;;;;;;;;18.13;62.11;100475.59;2087468;28;19912;-66
2021/10/19 04:45:12;;;;;;;;;;;;;;;18.14;61.96;100468.28;2089100;28;20367;-60
2021/10/19 04:46:13;;;;;;;;;;;;;;;18.14;61.80;100471.84;2084486;28;19923;-60
2021/10/19 04:47:15;;;;;;;;;;;;;;;18.14;61.92;100468.28;2082956;28;19917;-62
2021/10/19 04:48:16;;;;;;;;;;;;;;;18.14;61.91;100473.72;2083158;28;19921;-62
2021/10/19 04:49:16;;;;;;;;;;;;;;;18.14;62.09;100476.47;2079573;28;19921;-63
2021/10/19 04:50:16;;;;;;;;;;;;;;;18.12;61.99;100462.09;2083721;28;19919;-62
2021/10/19 04:51:17;;;;;;;;;;;;;;;18.13;62.07;100466.56;2081535;28;20347;-62
2021/10/19 04:52:17;;;;;;;;;;;;;;;18.13;61.89;100463.81;2081408;28;19982;-62
2021/10/19 04:53:17;;;;;;;;;;;;;;;18.13;61.99;100475.59;2082053;28;19908;-62
2021/10/19 04:54:18;;;;;;;;;;;;;;;18.14;62.25;100471.00;2079102;28;19928;-62
2021/10/19 04:55:18;;;;;;;;;;;;;;;18.14;61.99;100473.72;2081768;28;19917;-62
2021/10/19 04:56:20;;;;;;;;;;;;;;;18.12;61.91;100468.41;2079891;28;19956;-62
2021/10/19 04:57:21;;;;;;;;;;;;;;;18.13;62.12;100475.59;2080953;28;19912;-63
2021/10/19 04:58:21;;;;;;;;;;;;;;;18.13;62.07;100472.88;2081680;28;19928;-62
2021/10/19 04:59:22;;;;;;;;;;;;;;;18.12;62.16;100462.94;2078787;28;19921;-63
2021/10/19 05:00:22;;;;;;;;;;;;;;;18.13;62.14;100469.28;2086338;28;19924;-63
2021/10/19 05:01:22;;;;;;;;;;;;;;;18.13;62.11;100464.69;2080221;28;19955;-62
2021/10/19 05:02:23;;;;;;;;;;;;;;;18.13;61.99;100458.38;2074556;28;19931;-62
2021/10/19 05:03:23;;;;;;;;;;;;;;;18.13;62.14;100459.22;2072191;28;19928;-63
2021/10/19 05:04:23;;;;;;;;;;;;;;;18.13;62.03;100461.09;2083635;28;19916;-62
2021/10/19 05:05:24;;;;;;;;;;;;;;;18.13;62.21;100463.81;2082163;28;20439;-63
2021/10/19 05:06:24;;;;;;;;;;;;;;;18.13;62.17;100463.81;2082046;28;20250;-62
2021/10/19 05:07:25;;;;;;;;;;;;;;;18.13;62.11;100463.81;2082216;28;19977;-62
2021/10/19 05:08:25;;;;;;;;;;;;;;;18.12;62.16;100456.63;2078813;28;19990;-62
2021/10/19 05:09:25;;;;;;;;;;;;;;;18.12;62.04;100452.03;2082575;28;19912;-62
2021/10/19 05:10:26;;;;;;;;;;;;;;;18.12;62.06;100459.34;2081239;28;19908;-62